Los Angeles, California
Current Conditions -  °F | °C
As of 5:47 PM on Monday 20 Oct 2014 (Local Time) from KCQT Reporting Station
Clear Clear  
Wind Chill: 70°   Ceiling: Unl
Heat Index: 70°   Visibility: 10mi
Dew Point: 60°   Wind: 5mph
Humidity: 71%   Direction: 270°W
Pressure: 29.86"   Gusts: NA
Location:  34.05°N, 118.24°W
Report Text: KCQT 210047Z AUTO 27004KT 10SM CLR 21/16 A2986 RMK AO2 SLP109 T02110156
Loading
Personal Weather Stations






























Interactive Weather Map New forecast layout! Learn more

10-Day Weather Forecast

Advertisements
Track Severe Weather on mobile